sensor_id;sensor_type;location;lat;lon;timestamp;P1;durP1;ratioP1;P2;durP2;ratioP2
19095;SDS011;9680;52.520;13.332;2024-01-06T00:02:00;52.27;;;16.00;;
19095;SDS011;9680;52.520;13.332;2024-01-06T00:04:28;51.90;;;16.33;;
19095;SDS011;9680;52.520;13.332;2024-01-06T00:06:55;49.13;;;15.73;;
19095;SDS011;9680;52.520;13.332;2024-01-06T00:09:21;46.83;;;14.90;;
19095;SDS011;9680;52.520;13.332;2024-01-06T00:11:48;50.90;;;15.80;;
19095;SDS011;9680;52.520;13.332;2024-01-06T00:14:15;46.97;;;15.37;;
19095;SDS011;9680;52.520;13.332;2024-01-06T00:16:42;45.90;;;15.53;;
19095;SDS011;9680;52.520;13.332;2024-01-06T00:19:09;56.93;;;16.33;;
19095;SDS011;9680;52.520;13.332;2024-01-06T00:21:37;49.77;;;15.27;;
19095;SDS011;9680;52.520;13.332;2024-01-06T00:24:05;47.80;;;16.10;;
19095;SDS011;9680;52.520;13.332;2024-01-06T00:26:31;44.90;;;15.17;;
19095;SDS011;9680;52.520;13.332;2024-01-06T00:28:58;49.40;;;15.53;;
19095;SDS011;9680;52.520;13.332;2024-01-06T00:31:25;41.23;;;14.50;;
19095;SDS011;9680;52.520;13.332;2024-01-06T00:33:51;50.77;;;16.27;;
19095;SDS011;9680;52.520;13.332;2024-01-06T00:36:18;49.03;;;15.40;;
19095;SDS011;9680;52.520;13.332;2024-01-06T00:38:46;50.17;;;15.07;;
19095;SDS011;9680;52.520;13.332;2024-01-06T00:41:13;44.63;;;14.57;;
19095;SDS011;9680;52.520;13.332;2024-01-06T00:43:40;47.17;;;14.77;;
19095;SDS011;9680;52.520;13.332;2024-01-06T00:46:07;45.43;;;14.70;;
19095;SDS011;9680;52.520;13.332;2024-01-06T00:48:34;47.10;;;15.47;;
19095;SDS011;9680;52.520;13.332;2024-01-06T00:51:01;48.80;;;15.80;;
19095;SDS011;9680;52.520;13.332;2024-01-06T00:53:28;42.13;;;13.93;;
19095;SDS011;9680;52.520;13.332;2024-01-06T00:55:56;48.50;;;15.00;;
19095;SDS011;9680;52.520;13.332;2024-01-06T00:58:23;49.10;;;14.77;;
19095;SDS011;9680;52.520;13.332;2024-01-06T01:00:49;45.17;;;14.47;;
19095;SDS011;9680;52.520;13.332;2024-01-06T01:03:16;42.20;;;14.43;;
19095;SDS011;9680;52.520;13.332;2024-01-06T01:05:43;41.83;;;14.80;;
19095;SDS011;9680;52.520;13.332;2024-01-06T01:08:10;44.87;;;14.20;;
19095;SDS011;9680;52.520;13.332;2024-01-06T01:10:36;44.93;;;14.00;;
19095;SDS011;9680;52.520;13.332;2024-01-06T01:13:05;44.53;;;14.43;;
19095;SDS011;9680;52.520;13.332;2024-01-06T01:15:31;55.03;;;13.97;;
19095;SDS011;9680;52.520;13.332;2024-01-06T01:17:58;44.27;;;14.40;;
19095;SDS011;9680;52.520;13.332;2024-01-06T01:20:25;42.23;;;13.73;;
19095;SDS011;9680;52.520;13.332;2024-01-06T01:22:52;41.23;;;14.77;;
19095;SDS011;9680;52.520;13.332;2024-01-06T01:25:18;41.37;;;14.37;;
19095;SDS011;9680;52.520;13.332;2024-01-06T01:27:45;45.67;;;15.20;;
19095;SDS011;9680;52.520;13.332;2024-01-06T01:30:13;40.57;;;14.27;;
19095;SDS011;9680;52.520;13.332;2024-01-06T01:32:40;47.83;;;15.07;;
19095;SDS011;9680;52.520;13.332;2024-01-06T01:35:07;48.93;;;14.60;;
19095;SDS011;9680;52.520;13.332;2024-01-06T01:37:34;45.83;;;13.53;;
19095;SDS011;9680;52.520;13.332;2024-01-06T01:40:01;40.80;;;14.37;;
19095;SDS011;9680;52.520;13.332;2024-01-06T01:42:28;43.97;;;14.43;;
19095;SDS011;9680;52.520;13.332;2024-01-06T01:44:54;43.13;;;14.53;;
19095;SDS011;9680;52.520;13.332;2024-01-06T01:47:22;43.47;;;13.53;;
19095;SDS011;9680;52.520;13.332;2024-01-06T01:49:49;41.83;;;13.03;;
19095;SDS011;9680;52.520;13.332;2024-01-06T01:52:16;46.33;;;13.70;;
19095;SDS011;9680;52.520;13.332;2024-01-06T01:54:43;46.50;;;13.83;;
19095;SDS011;9680;52.520;13.332;2024-01-06T01:57:12;39.13;;;13.07;;
19095;SDS011;9680;52.520;13.332;2024-01-06T01:59:40;39.97;;;13.47;;
19095;SDS011;9680;52.520;13.332;2024-01-06T02:02:08;41.63;;;13.50;;
19095;SDS011;9680;52.520;13.332;2024-01-06T02:04:36;40.83;;;13.77;;
19095;SDS011;9680;52.520;13.332;2024-01-06T02:07:03;38.33;;;13.00;;
19095;SDS011;9680;52.520;13.332;2024-01-06T02:09:30;37.53;;;12.93;;
19095;SDS011;9680;52.520;13.332;2024-01-06T02:11:57;35.50;;;12.60;;
19095;SDS011;9680;52.520;13.332;2024-01-06T02:14:24;43.43;;;13.57;;
19095;SDS011;9680;52.520;13.332;2024-01-06T02:16:51;39.93;;;13.37;;
19095;SDS011;9680;52.520;13.332;2024-01-06T02:19:17;41.57;;;13.23;;
19095;SDS011;9680;52.520;13.332;2024-01-06T02:21:48;42.30;;;13.47;;
19095;SDS011;9680;52.520;13.332;2024-01-06T02:24:14;42.77;;;14.07;;
19095;SDS011;9680;52.520;13.332;2024-01-06T02:26:41;43.13;;;14.23;;
19095;SDS011;9680;52.520;13.332;2024-01-06T02:29:07;35.87;;;13.17;;
19095;SDS011;9680;52.520;13.332;2024-01-06T02:31:34;43.00;;;13.80;;
19095;SDS011;9680;52.520;13.332;2024-01-06T02:34:01;39.83;;;13.10;;
19095;SDS011;9680;52.520;13.332;2024-01-06T02:36:28;38.17;;;13.17;;
19095;SDS011;9680;52.520;13.332;2024-01-06T02:38:56;32.57;;;12.17;;
19095;SDS011;9680;52.520;13.332;2024-01-06T02:41:22;42.77;;;13.70;;
19095;SDS011;9680;52.520;13.332;2024-01-06T02:43:49;39.73;;;12.90;;
19095;SDS011;9680;52.520;13.332;2024-01-06T02:46:16;32.87;;;11.03;;
19095;SDS011;9680;52.520;13.332;2024-01-06T02:48:42;43.60;;;13.47;;
19095;SDS011;9680;52.520;13.332;2024-01-06T02:51:10;41.57;;;12.57;;
19095;SDS011;9680;52.520;13.332;2024-01-06T02:53:37;37.23;;;12.60;;
19095;SDS011;9680;52.520;13.332;2024-01-06T02:56:09;40.23;;;12.97;;
19095;SDS011;9680;52.520;13.332;2024-01-06T02:58:36;36.93;;;12.10;;
19095;SDS011;9680;52.520;13.332;2024-01-06T03:01:03;34.87;;;12.47;;
19095;SDS011;9680;52.520;13.332;2024-01-06T03:03:29;38.13;;;12.43;;
19095;SDS011;9680;52.520;13.332;2024-01-06T03:05:56;45.90;;;13.00;;
19095;SDS011;9680;52.520;13.332;2024-01-06T03:08:23;40.57;;;12.63;;
19095;SDS011;9680;52.520;13.332;2024-01-06T03:10:49;39.10;;;12.90;;
19095;SDS011;9680;52.520;13.332;2024-01-06T03:13:17;41.10;;;12.30;;
19095;SDS011;9680;52.520;13.332;2024-01-06T03:15:44;41.47;;;12.83;;
19095;SDS011;9680;52.520;13.332;2024-01-06T03:18:11;36.93;;;12.83;;
19095;SDS011;9680;52.520;13.332;2024-01-06T03:20:38;42.97;;;13.07;;
19095;SDS011;9680;52.520;13.332;2024-01-06T03:23:04;39.77;;;13.03;;
19095;SDS011;9680;52.520;13.332;2024-01-06T03:25:31;48.13;;;14.00;;
19095;SDS011;9680;52.520;13.332;2024-01-06T03:27:58;41.87;;;13.03;;
19095;SDS011;9680;52.520;13.332;2024-01-06T03:30:26;40.00;;;13.13;;
19095;SDS011;9680;52.520;13.332;2024-01-06T03:32:54;35.43;;;11.87;;
19095;SDS011;9680;52.520;13.332;2024-01-06T03:35:20;41.60;;;13.03;;
19095;SDS011;9680;52.520;13.332;2024-01-06T03:37:47;43.40;;;13.23;;
19095;SDS011;9680;52.520;13.332;2024-01-06T03:40:14;37.83;;;12.77;;
19095;SDS011;9680;52.520;13.332;2024-01-06T03:42:40;47.50;;;13.07;;
19095;SDS011;9680;52.520;13.332;2024-01-06T03:45:07;41.97;;;13.20;;
19095;SDS011;9680;52.520;13.332;2024-01-06T03:47:36;38.17;;;12.70;;
19095;SDS011;9680;52.520;13.332;2024-01-06T03:50:03;40.83;;;12.90;;
19095;SDS011;9680;52.520;13.332;2024-01-06T03:52:30;42.67;;;13.23;;
19095;SDS011;9680;52.520;13.332;2024-01-06T03:54:56;45.83;;;13.70;;
19095;SDS011;9680;52.520;13.332;2024-01-06T03:57:23;41.63;;;13.23;;
19095;SDS011;9680;52.520;13.332;2024-01-06T03:59:50;45.07;;;14.30;;
19095;SDS011;9680;52.520;13.332;2024-01-06T04:02:16;43.20;;;13.77;;
19095;SDS011;9680;52.520;13.332;2024-01-06T04:04:45;39.80;;;13.40;;
19095;SDS011;9680;52.520;13.332;2024-01-06T04:07:11;41.57;;;13.30;;
19095;SDS011;9680;52.520;13.332;2024-01-06T04:09:41;42.87;;;13.23;;
19095;SDS011;9680;52.520;13.332;2024-01-06T04:12:08;52.83;;;14.03;;
19095;SDS011;9680;52.520;13.332;2024-01-06T04:14:35;43.53;;;12.97;;
19095;SDS011;9680;52.520;13.332;2024-01-06T04:17:02;48.10;;;12.93;;
19095;SDS011;9680;52.520;13.332;2024-01-06T04:19:28;44.40;;;13.70;;
19095;SDS011;9680;52.520;13.332;2024-01-06T04:21:56;42.63;;;12.97;;
19095;SDS011;9680;52.520;13.332;2024-01-06T04:24:23;43.13;;;13.77;;
19095;SDS011;9680;52.520;13.332;2024-01-06T04:26:50;40.53;;;13.60;;
19095;SDS011;9680;52.520;13.332;2024-01-06T04:29:17;42.87;;;13.00;;
19095;SDS011;9680;52.520;13.332;2024-01-06T04:31:43;43.70;;;14.00;;
19095;SDS011;9680;52.520;13.332;2024-01-06T04:34:10;48.63;;;13.67;;
19095;SDS011;9680;52.520;13.332;2024-01-06T04:36:37;47.80;;;13.97;;
19095;SDS011;9680;52.520;13.332;2024-01-06T04:39:05;44.87;;;13.23;;
19095;SDS011;9680;52.520;13.332;2024-01-06T04:41:32;45.03;;;13.27;;
19095;SDS011;9680;52.520;13.332;2024-01-06T04:43:58;47.77;;;14.37;;
19095;SDS011;9680;52.520;13.332;2024-01-06T04:46:25;45.30;;;13.83;;
19095;SDS011;9680;52.520;13.332;2024-01-06T04:48:52;49.83;;;13.33;;
19095;SDS011;9680;52.520;13.332;2024-01-06T04:51:18;41.50;;;13.10;;
19095;SDS011;9680;52.520;13.332;2024-01-06T04:53:45;38.70;;;13.30;;
19095;SDS011;9680;52.520;13.332;2024-01-06T04:56:13;42.80;;;13.50;;
19095;SDS011;9680;52.520;13.332;2024-01-06T04:58:40;42.73;;;13.40;;
19095;SDS011;9680;52.520;13.332;2024-01-06T05:01:07;42.53;;;14.27;;
19095;SDS011;9680;52.520;13.332;2024-01-06T05:03:34;44.63;;;13.77;;
19095;SDS011;9680;52.520;13.332;2024-01-06T05:06:00;46.77;;;13.17;;
19095;SDS011;9680;52.520;13.332;2024-01-06T05:08:27;44.73;;;14.73;;
19095;SDS011;9680;52.520;13.332;2024-01-06T05:10:56;44.97;;;13.40;;
19095;SDS011;9680;52.520;13.332;2024-01-06T05:13:24;48.23;;;14.73;;
19095;SDS011;9680;52.520;13.332;2024-01-06T05:15:51;50.07;;;13.60;;
19095;SDS011;9680;52.520;13.332;2024-01-06T05:18:17;42.63;;;14.03;;
19095;SDS011;9680;52.520;13.332;2024-01-06T05:20:44;41.10;;;12.70;;
19095;SDS011;9680;52.520;13.332;2024-01-06T05:23:11;46.37;;;14.67;;
19095;SDS011;9680;52.520;13.332;2024-01-06T05:25:38;48.53;;;14.10;;
19095;SDS011;9680;52.520;13.332;2024-01-06T05:28:05;44.57;;;13.13;;
19095;SDS011;9680;52.520;13.332;2024-01-06T05:30:33;51.20;;;14.97;;
19095;SDS011;9680;52.520;13.332;2024-01-06T05:33:00;46.70;;;13.70;;
19095;SDS011;9680;52.520;13.332;2024-01-06T05:35:27;42.50;;;13.83;;
19095;SDS011;9680;52.520;13.332;2024-01-06T05:37:54;54.40;;;14.63;;
19095;SDS011;9680;52.520;13.332;2024-01-06T05:40:21;46.23;;;14.40;;
19095;SDS011;9680;52.520;13.332;2024-01-06T05:42:48;52.03;;;13.53;;
19095;SDS011;9680;52.520;13.332;2024-01-06T05:45:15;48.73;;;14.43;;
19095;SDS011;9680;52.520;13.332;2024-01-06T05:47:43;50.43;;;15.23;;
19095;SDS011;9680;52.520;13.332;2024-01-06T05:50:10;50.20;;;14.90;;
19095;SDS011;9680;52.520;13.332;2024-01-06T05:52:36;45.00;;;13.10;;
19095;SDS011;9680;52.520;13.332;2024-01-06T05:55:04;51.33;;;15.30;;
19095;SDS011;9680;52.520;13.332;2024-01-06T05:57:31;44.20;;;14.50;;
19095;SDS011;9680;52.520;13.332;2024-01-06T05:59:58;41.53;;;13.30;;
19095;SDS011;9680;52.520;13.332;2024-01-06T06:02:25;46.57;;;14.43;;
19095;SDS011;9680;52.520;13.332;2024-01-06T06:04:53;47.10;;;14.37;;
19095;SDS011;9680;52.520;13.332;2024-01-06T06:07:20;44.93;;;14.33;;
19095;SDS011;9680;52.520;13.332;2024-01-06T06:09:47;43.30;;;14.13;;
19095;SDS011;9680;52.520;13.332;2024-01-06T06:12:14;43.53;;;14.07;;
19095;SDS011;9680;52.520;13.332;2024-01-06T06:14:41;54.60;;;14.73;;
19095;SDS011;9680;52.520;13.332;2024-01-06T06:17:07;50.13;;;14.13;;
19095;SDS011;9680;52.520;13.332;2024-01-06T06:19:34;47.50;;;14.53;;
19095;SDS011;9680;52.520;13.332;2024-01-06T06:22:02;47.27;;;14.60;;
19095;SDS011;9680;52.520;13.332;2024-01-06T06:24:29;50.10;;;14.70;;
19095;SDS011;9680;52.520;13.332;2024-01-06T06:26:56;45.57;;;14.30;;
19095;SDS011;9680;52.520;13.332;2024-01-06T06:29:23;48.10;;;15.17;;
19095;SDS011;9680;52.520;13.332;2024-01-06T06:31:49;52.07;;;14.60;;
19095;SDS011;9680;52.520;13.332;2024-01-06T06:34:16;46.60;;;13.80;;
19095;SDS011;9680;52.520;13.332;2024-01-06T06:36:44;45.13;;;14.70;;
19095;SDS011;9680;52.520;13.332;2024-01-06T06:39:13;44.93;;;12.90;;
19095;SDS011;9680;52.520;13.332;2024-01-06T06:41:41;46.10;;;12.97;;
19095;SDS011;9680;52.520;13.332;2024-01-06T06:44:08;49.10;;;14.70;;
19095;SDS011;9680;52.520;13.332;2024-01-06T06:46:35;44.07;;;14.33;;
19095;SDS011;9680;52.520;13.332;2024-01-06T06:49:03;49.20;;;13.73;;
19095;SDS011;9680;52.520;13.332;2024-01-06T06:51:30;46.90;;;13.53;;
19095;SDS011;9680;52.520;13.332;2024-01-06T06:53:56;44.23;;;13.37;;
19095;SDS011;9680;52.520;13.332;2024-01-06T06:56:25;52.27;;;14.93;;
19095;SDS011;9680;52.520;13.332;2024-01-06T06:58:51;52.43;;;14.33;;
19095;SDS011;9680;52.520;13.332;2024-01-06T07:01:18;45.53;;;12.80;;
19095;SDS011;9680;52.520;13.332;2024-01-06T07:03:45;46.83;;;12.67;;
19095;SDS011;9680;52.520;13.332;2024-01-06T07:06:12;43.73;;;12.53;;
19095;SDS011;9680;52.520;13.332;2024-01-06T07:08:39;48.17;;;14.10;;
19095;SDS011;9680;52.520;13.332;2024-01-06T07:11:07;46.60;;;12.87;;
19095;SDS011;9680;52.520;13.332;2024-01-06T07:13:40;51.60;;;14.20;;
19095;SDS011;9680;52.520;13.332;2024-01-06T07:16:06;46.53;;;13.67;;
19095;SDS011;9680;52.520;13.332;2024-01-06T07:18:33;49.60;;;13.43;;
19095;SDS011;9680;52.520;13.332;2024-01-06T07:21:00;47.73;;;12.53;;
19095;SDS011;9680;52.520;13.332;2024-01-06T07:23:27;48.27;;;14.13;;
19095;SDS011;9680;52.520;13.332;2024-01-06T07:25:55;42.33;;;11.93;;
19095;SDS011;9680;52.520;13.332;2024-01-06T07:28:22;46.30;;;13.77;;
19095;SDS011;9680;52.520;13.332;2024-01-06T07:30:50;46.93;;;13.27;;
19095;SDS011;9680;52.520;13.332;2024-01-06T07:33:17;42.57;;;13.83;;
19095;SDS011;9680;52.520;13.332;2024-01-06T07:35:43;47.13;;;13.17;;
19095;SDS011;9680;52.520;13.332;2024-01-06T07:38:11;43.93;;;13.43;;
19095;SDS011;9680;52.520;13.332;2024-01-06T07:40:38;49.13;;;12.37;;
19095;SDS011;9680;52.520;13.332;2024-01-06T07:43:05;41.20;;;11.53;;
19095;SDS011;9680;52.520;13.332;2024-01-06T07:45:32;44.07;;;13.70;;
19095;SDS011;9680;52.520;13.332;2024-01-06T07:48:00;45.97;;;13.27;;
19095;SDS011;9680;52.520;13.332;2024-01-06T07:50:27;44.00;;;12.33;;
19095;SDS011;9680;52.520;13.332;2024-01-06T07:52:54;49.37;;;13.30;;
19095;SDS011;9680;52.520;13.332;2024-01-06T07:55:21;51.20;;;14.10;;
19095;SDS011;9680;52.520;13.332;2024-01-06T07:57:47;51.87;;;13.73;;
19095;SDS011;9680;52.520;13.332;2024-01-06T08:00:14;47.17;;;12.33;;
19095;SDS011;9680;52.520;13.332;2024-01-06T08:02:41;49.90;;;14.13;;
19095;SDS011;9680;52.520;13.332;2024-01-06T08:05:09;42.87;;;12.57;;
19095;SDS011;9680;52.520;13.332;2024-01-06T08:07:36;50.83;;;14.43;;
19095;SDS011;9680;52.520;13.332;2024-01-06T08:10:03;53.73;;;14.40;;
19095;SDS011;9680;52.520;13.332;2024-01-06T08:12:31;51.03;;;13.03;;
19095;SDS011;9680;52.520;13.332;2024-01-06T08:14:58;57.30;;;14.00;;
19095;SDS011;9680;52.520;13.332;2024-01-06T08:17:24;44.33;;;13.00;;
19095;SDS011;9680;52.520;13.332;2024-01-06T08:19:51;50.60;;;14.77;;
19095;SDS011;9680;52.520;13.332;2024-01-06T08:22:19;50.03;;;14.47;;
19095;SDS011;9680;52.520;13.332;2024-01-06T08:24:46;50.67;;;14.70;;
19095;SDS011;9680;52.520;13.332;2024-01-06T08:27:13;42.33;;;13.60;;
19095;SDS011;9680;52.520;13.332;2024-01-06T08:29:40;52.07;;;14.67;;
19095;SDS011;9680;52.520;13.332;2024-01-06T08:32:06;44.30;;;13.10;;
19095;SDS011;9680;52.520;13.332;2024-01-06T08:34:33;47.10;;;13.33;;
19095;SDS011;9680;52.520;13.332;2024-01-06T08:37:01;54.30;;;14.43;;
19095;SDS011;9680;52.520;13.332;2024-01-06T08:39:30;52.50;;;14.67;;
19095;SDS011;9680;52.520;13.332;2024-01-06T08:41:57;43.23;;;13.27;;
19095;SDS011;9680;52.520;13.332;2024-01-06T08:44:24;52.57;;;14.53;;
19095;SDS011;9680;52.520;13.332;2024-01-06T08:46:50;51.10;;;14.67;;
19095;SDS011;9680;52.520;13.332;2024-01-06T08:49:17;46.53;;;14.10;;
19095;SDS011;9680;52.520;13.332;2024-01-06T08:51:44;46.77;;;14.50;;
19095;SDS011;9680;52.520;13.332;2024-01-06T08:54:10;42.60;;;12.83;;
19095;SDS011;9680;52.520;13.332;2024-01-06T08:56:38;44.40;;;13.73;;
19095;SDS011;9680;52.520;13.332;2024-01-06T08:59:05;49.30;;;13.07;;
19095;SDS011;9680;52.520;13.332;2024-01-06T09:01:32;43.87;;;13.23;;
19095;SDS011;9680;52.520;13.332;2024-01-06T09:04:01;47.30;;;14.17;;
19095;SDS011;9680;52.520;13.332;2024-01-06T09:06:27;44.57;;;13.30;;
19095;SDS011;9680;52.520;13.332;2024-01-06T09:08:54;46.00;;;13.33;;
19095;SDS011;9680;52.520;13.332;2024-01-06T09:11:21;40.80;;;13.27;;
19095;SDS011;9680;52.520;13.332;2024-01-06T09:13:49;52.93;;;14.17;;
19095;SDS011;9680;52.520;13.332;2024-01-06T09:16:17;46.70;;;13.17;;
19095;SDS011;9680;52.520;13.332;2024-01-06T09:18:44;45.60;;;12.93;;
19095;SDS011;9680;52.520;13.332;2024-01-06T09:21:11;44.60;;;13.63;;
19095;SDS011;9680;52.520;13.332;2024-01-06T09:23:37;44.27;;;12.07;;
19095;SDS011;9680;52.520;13.332;2024-01-06T09:26:05;39.30;;;12.23;;
19095;SDS011;9680;52.520;13.332;2024-01-06T09:28:31;44.27;;;13.40;;
19095;SDS011;9680;52.520;13.332;2024-01-06T09:31:00;47.27;;;13.27;;
19095;SDS011;9680;52.520;13.332;2024-01-06T09:33:26;45.67;;;12.33;;
19095;SDS011;9680;52.520;13.332;2024-01-06T09:35:53;42.50;;;13.50;;
19095;SDS011;9680;52.520;13.332;2024-01-06T09:38:20;49.10;;;14.20;;
19095;SDS011;9680;52.520;13.332;2024-01-06T09:40:46;41.13;;;12.53;;
19095;SDS011;9680;52.520;13.332;2024-01-06T09:43:15;46.20;;;12.93;;
19095;SDS011;9680;52.520;13.332;2024-01-06T09:45:42;46.20;;;13.93;;
19095;SDS011;9680;52.520;13.332;2024-01-06T09:48:12;47.00;;;12.97;;
19095;SDS011;9680;52.520;13.332;2024-01-06T09:50:40;43.67;;;13.03;;
19095;SDS011;9680;52.520;13.332;2024-01-06T09:53:08;45.23;;;12.63;;
19095;SDS011;9680;52.520;13.332;2024-01-06T09:55:36;50.43;;;13.90;;
19095;SDS011;9680;52.520;13.332;2024-01-06T09:58:04;40.67;;;12.47;;
19095;SDS011;9680;52.520;13.332;2024-01-06T10:00:31;38.93;;;12.67;;
19095;SDS011;9680;52.520;13.332;2024-01-06T10:02:58;45.87;;;12.60;;
19095;SDS011;9680;52.520;13.332;2024-01-06T10:05:26;39.97;;;13.30;;
19095;SDS011;9680;52.520;13.332;2024-01-06T10:07:53;44.43;;;14.10;;
19095;SDS011;9680;52.520;13.332;2024-01-06T10:10:20;36.47;;;11.80;;
19095;SDS011;9680;52.520;13.332;2024-01-06T10:12:48;43.27;;;13.20;;
19095;SDS011;9680;52.520;13.332;2024-01-06T10:15:20;38.53;;;13.07;;
19095;SDS011;9680;52.520;13.332;2024-01-06T10:17:47;47.80;;;15.17;;
19095;SDS011;9680;52.520;13.332;2024-01-06T10:20:15;46.53;;;13.87;;
19095;SDS011;9680;52.520;13.332;2024-01-06T10:22:44;44.00;;;13.73;;
19095;SDS011;9680;52.520;13.332;2024-01-06T10:25:11;43.20;;;12.47;;
19095;SDS011;9680;52.520;13.332;2024-01-06T10:27:39;45.73;;;13.03;;
19095;SDS011;9680;52.520;13.332;2024-01-06T10:30:07;33.87;;;11.57;;
19095;SDS011;9680;52.520;13.332;2024-01-06T10:32:35;35.80;;;12.87;;
19095;SDS011;9680;52.520;13.332;2024-01-06T10:35:03;44.00;;;11.83;;
19095;SDS011;9680;52.520;13.332;2024-01-06T10:37:31;41.17;;;12.93;;
19095;SDS011;9680;52.520;13.332;2024-01-06T10:40:07;38.20;;;12.77;;
19095;SDS011;9680;52.520;13.332;2024-01-06T10:42:35;39.63;;;12.50;;
19095;SDS011;9680;52.520;13.332;2024-01-06T10:45:04;38.80;;;12.53;;
19095;SDS011;9680;52.520;13.332;2024-01-06T10:47:34;40.53;;;13.73;;
19095;SDS011;9680;52.520;13.332;2024-01-06T10:50:01;40.60;;;12.90;;
19095;SDS011;9680;52.520;13.332;2024-01-06T10:52:29;42.60;;;13.70;;
19095;SDS011;9680;52.520;13.332;2024-01-06T10:54:55;39.30;;;12.80;;
19095;SDS011;9680;52.520;13.332;2024-01-06T10:57:24;35.10;;;12.57;;
19095;SDS011;9680;52.520;13.332;2024-01-06T10:59:53;37.73;;;12.33;;
19095;SDS011;9680;52.520;13.332;2024-01-06T11:02:19;39.87;;;12.47;;
19095;SDS011;9680;52.520;13.332;2024-01-06T11:04:46;39.23;;;10.90;;
19095;SDS011;9680;52.520;13.332;2024-01-06T11:07:16;45.73;;;13.67;;
19095;SDS011;9680;52.520;13.332;2024-01-06T11:09:45;35.53;;;11.60;;
19095;SDS011;9680;52.520;13.332;2024-01-06T11:12:18;36.83;;;11.67;;
19095;SDS011;9680;52.520;13.332;2024-01-06T11:14:47;40.87;;;13.60;;
19095;SDS011;9680;52.520;13.332;2024-01-06T11:17:18;40.23;;;13.10;;
19095;SDS011;9680;52.520;13.332;2024-01-06T11:20:20;31.13;;;10.70;;
19095;SDS011;9680;52.520;13.332;2024-01-06T11:22:48;40.73;;;13.07;;
19095;SDS011;9680;52.520;13.332;2024-01-06T11:25:15;36.40;;;11.53;;
19095;SDS011;9680;52.520;13.332;2024-01-06T11:27:44;34.60;;;12.00;;
19095;SDS011;9680;52.520;13.332;2024-01-06T11:30:19;36.57;;;12.50;;
19095;SDS011;9680;52.520;13.332;2024-01-06T11:32:46;44.30;;;13.53;;
19095;SDS011;9680;52.520;13.332;2024-01-06T11:35:15;45.63;;;14.53;;
19095;SDS011;9680;52.520;13.332;2024-01-06T11:37:53;38.93;;;12.87;;
19095;SDS011;9680;52.520;13.332;2024-01-06T11:40:23;36.33;;;12.30;;
19095;SDS011;9680;52.520;13.332;2024-01-06T11:42:58;38.90;;;12.03;;
19095;SDS011;9680;52.520;13.332;2024-01-06T11:45:28;40.60;;;11.20;;
19095;SDS011;9680;52.520;13.332;2024-01-06T11:47:56;36.00;;;11.47;;
19095;SDS011;9680;52.520;13.332;2024-01-06T11:50:25;34.70;;;11.90;;
19095;SDS011;9680;52.520;13.332;2024-01-06T11:52:52;37.07;;;13.00;;
19095;SDS011;9680;52.520;13.332;2024-01-06T11:55:19;36.03;;;12.40;;
19095;SDS011;9680;52.520;13.332;2024-01-06T11:57:47;45.47;;;14.10;;
19095;SDS011;9680;52.520;13.332;2024-01-06T12:00:15;38.33;;;13.43;;
19095;SDS011;9680;52.520;13.332;2024-01-06T12:02:42;44.60;;;13.27;;
19095;SDS011;9680;52.520;13.332;2024-01-06T12:05:12;37.63;;;12.60;;
19095;SDS011;9680;52.520;13.332;2024-01-06T12:07:41;35.20;;;12.47;;
19095;SDS011;9680;52.520;13.332;2024-01-06T12:10:09;34.70;;;11.93;;
19095;SDS011;9680;52.520;13.332;2024-01-06T12:12:36;40.83;;;13.30;;
19095;SDS011;9680;52.520;13.332;2024-01-06T12:15:04;46.87;;;14.13;;
19095;SDS011;9680;52.520;13.332;2024-01-06T12:17:34;37.63;;;12.70;;
19095;SDS011;9680;52.520;13.332;2024-01-06T12:20:01;36.53;;;12.10;;
19095;SDS011;9680;52.520;13.332;2024-01-06T12:22:29;38.43;;;12.37;;
19095;SDS011;9680;52.520;13.332;2024-01-06T12:24:58;39.53;;;12.53;;
19095;SDS011;9680;52.520;13.332;2024-01-06T12:27:24;40.27;;;12.80;;
19095;SDS011;9680;52.520;13.332;2024-01-06T12:29:52;41.63;;;13.93;;
19095;SDS011;9680;52.520;13.332;2024-01-06T12:32:19;37.33;;;10.83;;
19095;SDS011;9680;52.520;13.332;2024-01-06T12:34:46;38.60;;;12.63;;
19095;SDS011;9680;52.520;13.332;2024-01-06T12:37:13;39.93;;;13.27;;
19095;SDS011;9680;52.520;13.332;2024-01-06T12:39:40;40.57;;;13.90;;
19095;SDS011;9680;52.520;13.332;2024-01-06T12:42:09;37.50;;;11.50;;
19095;SDS011;9680;52.520;13.332;2024-01-06T12:44:35;37.97;;;10.87;;
19095;SDS011;9680;52.520;13.332;2024-01-06T12:47:04;40.00;;;12.37;;
19095;SDS011;9680;52.520;13.332;2024-01-06T12:49:31;36.83;;;11.43;;
19095;SDS011;9680;52.520;13.332;2024-01-06T12:51:58;41.13;;;12.10;;
19095;SDS011;9680;52.520;13.332;2024-01-06T12:54:25;42.33;;;12.73;;
19095;SDS011;9680;52.520;13.332;2024-01-06T12:56:54;35.07;;;12.03;;
19095;SDS011;9680;52.520;13.332;2024-01-06T12:59:22;41.30;;;12.43;;
19095;SDS011;9680;52.520;13.332;2024-01-06T13:01:49;41.50;;;12.90;;
19095;SDS011;9680;52.520;13.332;2024-01-06T13:04:16;37.53;;;12.37;;
19095;SDS011;9680;52.520;13.332;2024-01-06T13:06:43;32.03;;;11.53;;
19095;SDS011;9680;52.520;13.332;2024-01-06T13:09:10;38.30;;;12.80;;
19095;SDS011;9680;52.520;13.332;2024-01-06T13:11:41;33.90;;;11.63;;
19095;SDS011;9680;52.520;13.332;2024-01-06T13:14:08;31.63;;;11.60;;
19095;SDS011;9680;52.520;13.332;2024-01-06T13:16:36;35.00;;;11.27;;
19095;SDS011;9680;52.520;13.332;2024-01-06T13:19:03;38.13;;;11.87;;
19095;SDS011;9680;52.520;13.332;2024-01-06T13:21:30;37.30;;;12.70;;
19095;SDS011;9680;52.520;13.332;2024-01-06T13:23:57;32.93;;;11.47;;
19095;SDS011;9680;52.520;13.332;2024-01-06T13:26:26;35.47;;;11.37;;
19095;SDS011;9680;52.520;13.332;2024-01-06T13:28:54;37.70;;;12.27;;
19095;SDS011;9680;52.520;13.332;2024-01-06T13:31:20;36.13;;;12.13;;
19095;SDS011;9680;52.520;13.332;2024-01-06T13:33:48;39.87;;;12.87;;
19095;SDS011;9680;52.520;13.332;2024-01-06T13:36:17;34.43;;;11.60;;
19095;SDS011;9680;52.520;13.332;2024-01-06T13:38:43;34.50;;;10.30;;
19095;SDS011;9680;52.520;13.332;2024-01-06T13:41:10;32.03;;;10.17;;
19095;SDS011;9680;52.520;13.332;2024-01-06T13:43:37;32.90;;;10.57;;
19095;SDS011;9680;52.520;13.332;2024-01-06T13:46:03;37.60;;;10.40;;
19095;SDS011;9680;52.520;13.332;2024-01-06T13:48:30;35.20;;;10.80;;
19095;SDS011;9680;52.520;13.332;2024-01-06T13:50:58;37.50;;;11.00;;
19095;SDS011;9680;52.520;13.332;2024-01-06T13:53:25;33.33;;;10.80;;
19095;SDS011;9680;52.520;13.332;2024-01-06T13:55:52;36.37;;;11.73;;
19095;SDS011;9680;52.520;13.332;2024-01-06T13:58:19;30.63;;;10.20;;
19095;SDS011;9680;52.520;13.332;2024-01-06T14:00:46;32.93;;;10.73;;
19095;SDS011;9680;52.520;13.332;2024-01-06T14:03:13;28.43;;;10.53;;
19095;SDS011;9680;52.520;13.332;2024-01-06T14:05:40;28.73;;;10.80;;
19095;SDS011;9680;52.520;13.332;2024-01-06T14:08:09;32.00;;;11.23;;
19095;SDS011;9680;52.520;13.332;2024-01-06T14:10:36;32.80;;;10.20;;
19095;SDS011;9680;52.520;13.332;2024-01-06T14:13:03;30.80;;;10.70;;
19095;SDS011;9680;52.520;13.332;2024-01-06T14:15:30;34.93;;;11.37;;
19095;SDS011;9680;52.520;13.332;2024-01-06T14:17:58;31.47;;;11.03;;
19095;SDS011;9680;52.520;13.332;2024-01-06T14:20:25;35.03;;;11.40;;
19095;SDS011;9680;52.520;13.332;2024-01-06T14:22:52;30.63;;;10.93;;